Time;durP1;ratioP1;P1;durP2;ratioP2;P2;SDS_P1;SDS_P2;PMS_P1;PMS_P2;Temp;Humidity;BMP_temperature;BMP_pressure;BME280_temperature;BME280_humidity;BME280_pressure;Samples;Min_cycle;Max_cycle;Signal;HPM_P1;HPM_P2
2022/06/23 04:02:11;;;;;;;12.27;11.07;;;14.70;99.90;;;;;;5236681;23;20561;-69
2022/06/23 04:04:47;;;;;;;13.57;12.33;;;14.70;99.90;;;;;;4988247;28;20458;-69
2022/06/23 04:07:34;;;;;;;12.30;10.70;;;14.80;99.90;;;;;;4974303;28;20955;-70
2022/06/23 04:10:04;;;;;;;14.03;12.00;;;14.80;99.90;;;;;;4985311;28;20552;-70
2022/06/23 04:12:32;;;;;;;13.97;10.83;;;14.80;99.90;;;;;;4975804;28;20490;-69
2022/06/23 04:15:05;;;;;;;11.50;10.40;;;14.90;99.90;;;;;;4994095;28;20466;-68
2022/06/23 04:17:38;;;;;;;12.40;10.80;;;14.90;99.90;;;;;;4993027;28;20463;-69
2022/06/23 04:20:13;;;;;;;10.93;9.70;;;15.00;99.90;;;;;;4993187;28;20459;-68
2022/06/23 04:22:43;;;;;;;14.00;12.37;;;15.00;99.90;;;;;;4993350;28;20470;-68
2022/06/23 04:25:15;;;;;;;11.33;10.27;;;15.40;99.90;;;;;;4993540;28;20459;-68
2022/06/23 04:27:50;;;;;;;8.20;7.60;;;16.20;99.90;;;;;;4991908;28;20467;-69
2022/06/23 04:30:34;;;;;;;8.00;7.43;;;17.20;99.90;;;;;;4991952;28;21021;-69
2022/06/23 04:33:05;;;;;;;8.77;7.97;;;18.10;99.90;;;;;;4986891;28;20458;-68
2022/06/23 04:35:36;;;;;;;7.37;6.63;;;19.00;99.90;;;;;;4993805;28;20584;-69
2022/06/23 04:38:09;;;;;;;6.80;6.30;;;19.80;99.90;;;;;;4991193;28;20503;-67
2022/06/23 04:40:46;;;;;;;5.90;5.50;;;20.60;99.90;;;;;;4985103;28;20479;-67
2022/06/23 04:43:17;;;;;;;5.87;5.67;;;20.90;99.90;;;;;;4992604;28;20554;-68
2022/06/23 04:45:54;;;;;;;6.50;6.00;;;21.50;99.90;;;;;;4993247;28;20606;-68
2022/06/23 04:48:27;;;;;;;6.10;5.80;;;22.00;99.90;;;;;;4991669;28;21194;-68
2022/06/23 04:50:59;;;;;;;6.33;6.03;;;22.40;99.90;;;;;;4991623;28;20482;-68
2022/06/23 04:53:48;;;;;;;5.80;5.47;;;22.80;99.90;;;;;;4993181;28;20459;-68
2022/06/23 04:56:33;;;;;;;6.07;5.70;;;23.20;99.90;;;;;;4996537;28;20548;-68
2022/06/23 04:59:04;;;;;;;6.20;5.80;;;23.60;99.90;;;;;;4998639;28;20472;-67
2022/06/23 05:01:38;;;;;;;6.10;5.80;;;23.90;99.90;;;;;;4997252;28;20500;-67
2022/06/23 05:04:11;;;;;;;5.67;5.23;;;24.00;99.90;;;;;;4992832;28;20464;-69
2022/06/23 05:06:41;;;;;;;5.50;5.20;;;24.50;99.90;;;;;;4992010;28;20472;-67
2022/06/23 05:09:18;;;;;;;5.70;5.37;;;24.70;99.90;;;;;;4993206;28;20489;-67
2022/06/23 05:11:49;;;;;;;6.90;6.30;;;24.70;99.90;;;;;;4990235;28;20878;-67
2022/06/23 05:14:26;;;;;;;5.27;5.07;;;24.80;99.90;;;;;;4992882;28;20464;-69
2022/06/23 05:17:00;;;;;;;5.87;5.53;;;25.10;99.90;;;;;;4991790;28;20476;-67
2022/06/23 05:19:32;;;;;;;5.13;4.93;;;25.30;99.90;;;;;;4982125;28;20561;-68
2022/06/23 05:22:08;;;;;;;5.93;5.63;;;25.60;99.90;;;;;;4991362;28;20475;-69
2022/06/23 05:24:38;;;;;;;5.13;4.93;;;25.60;99.90;;;;;;4992274;28;20473;-67
2022/06/23 05:27:08;;;;;;;10.40;4.97;;;25.50;99.90;;;;;;4990977;28;20470;-67
2022/06/23 05:29:40;;;;;;;6.13;5.73;;;25.30;99.90;;;;;;4991457;28;20492;-67
2022/06/23 05:32:15;;;;;;;5.20;4.90;;;25.20;99.90;;;;;;4991846;28;20496;-69
2022/06/23 05:34:50;;;;;;;4.67;4.27;;;25.00;99.90;;;;;;4987139;28;20465;-68
2022/06/23 05:37:23;;;;;;;5.33;5.13;;;25.20;99.90;;;;;;4990669;28;20473;-68
2022/06/23 05:39:55;;;;;;;4.60;4.40;;;25.30;99.90;;;;;;4987124;28;20458;-69
2022/06/23 05:42:25;;;;;;;5.37;5.10;;;25.40;99.90;;;;;;4986522;28;20609;-70
2022/06/23 05:44:58;;;;;;;5.33;5.00;;;25.60;99.90;;;;;;4990782;28;20490;-68
2022/06/23 05:47:28;;;;;;;5.00;4.90;;;25.70;99.90;;;;;;4989041;28;20492;-68
2022/06/23 05:50:01;;;;;;;4.97;4.60;;;25.60;99.90;;;;;;4990810;28;20482;-68
2022/06/23 05:52:32;;;;;;;4.87;4.77;;;25.20;99.90;;;;;;4990780;28;20494;-67
2022/06/23 05:55:05;;;;;;;5.57;4.90;;;25.20;99.90;;;;;;4988973;28;20472;-68
2022/06/23 05:57:40;;;;;;;5.13;4.93;;;25.10;99.90;;;;;;4989728;28;20456;-69
2022/06/23 06:00:19;;;;;;;5.37;4.97;;;25.00;99.90;;;;;;4989836;28;20455;-70
2022/06/23 06:02:51;;;;;;;5.37;5.00;;;25.10;99.90;;;;;;4990608;28;20473;-67
2022/06/23 06:05:26;;;;;;;5.67;5.27;;;25.60;99.90;;;;;;4990528;28;20488;-67
2022/06/23 06:07:53;;;;;;;5.50;5.30;;;25.70;99.90;;;;;;4990737;28;20449;-70
2022/06/23 06:10:22;;;;;;;5.00;4.80;;;25.70;99.90;;;;;;4990876;28;20494;-67
2022/06/23 06:12:50;;;;;;;5.53;4.40;;;26.10;99.90;;;;;;4980865;28;20491;-67
2022/06/23 06:15:20;;;;;;;4.57;4.37;;;26.80;99.90;;;;;;4982733;28;20948;-69
2022/06/23 06:17:48;;;;;;;4.07;3.90;;;27.00;99.90;;;;;;4985319;28;20471;-65
2022/06/23 06:20:16;;;;;;;4.33;4.13;;;27.30;99.90;;;;;;4987527;28;20470;-67
2022/06/23 06:22:54;;;;;;;5.17;4.77;;;27.10;99.90;;;;;;4988552;28;20469;-72
2022/06/23 06:25:30;;;;;;;4.93;4.83;;;26.70;99.90;;;;;;4984701;28;20478;-70
2022/06/23 06:28:01;;;;;;;3.87;3.70;;;27.00;99.90;;;;;;4985512;28;20470;-67
2022/06/23 06:30:34;;;;;;;4.37;4.27;;;27.20;99.90;;;;;;4983619;28;20494;-67
2022/06/23 06:33:02;;;;;;;5.03;4.70;;;27.30;99.90;;;;;;4990203;28;20484;-67
2022/06/23 06:35:35;;;;;;;5.47;5.17;;;27.20;99.90;;;;;;4988133;28;20471;-66
2022/06/23 06:38:08;;;;;;;4.40;4.10;;;27.60;99.90;;;;;;4988070;28;20484;-68
2022/06/23 06:40:36;;;;;;;4.23;4.03;;;28.20;99.90;;;;;;4987878;28;20477;-66
2022/06/23 06:43:07;;;;;;;4.70;4.53;;;28.80;99.90;;;;;;4988839;28;20473;-66
2022/06/23 06:45:36;;;;;;;4.63;4.43;;;28.90;99.90;;;;;;4989693;28;20466;-66
2022/06/23 06:48:04;;;;;;;4.60;4.30;;;29.00;99.60;;;;;;4989445;28;20481;-66
2022/06/23 06:50:35;;;;;;;4.50;4.13;;;29.40;99.40;;;;;;4988384;28;20485;-66
2022/06/23 06:53:11;;;;;;;4.33;4.23;;;29.60;98.70;;;;;;4990781;28;20468;-68
2022/06/23 06:55:41;;;;;;;4.07;3.87;;;29.40;97.90;;;;;;4989720;28;20473;-67
2022/06/23 06:58:13;;;;;;;4.47;4.27;;;29.30;98.40;;;;;;4989258;28;20465;-67
2022/06/23 07:00:44;;;;;;;4.80;4.50;;;28.80;98.30;;;;;;4991195;28;20490;-68
2022/06/23 07:03:15;;;;;;;4.00;3.90;;;28.90;98.60;;;;;;4994614;28;20472;-66
2022/06/23 07:05:49;;;;;;;4.10;3.90;;;29.50;98.10;;;;;;4994690;28;20457;-66
2022/06/23 07:08:23;;;;;;;4.07;4.00;;;29.80;97.30;;;;;;4994975;28;20469;-66
2022/06/23 07:10:53;;;;;;;4.60;4.40;;;29.70;97.00;;;;;;4994354;28;20492;-69
2022/06/23 07:13:26;;;;;;;4.37;4.20;;;29.50;97.40;;;;;;4992332;28;20465;-68
2022/06/23 07:15:57;;;;;;;4.50;4.33;;;29.60;97.60;;;;;;4988761;28;20595;-66
2022/06/23 07:18:31;;;;;;;5.93;4.77;;;30.00;96.80;;;;;;4987695;28;20475;-66
2022/06/23 07:21:03;;;;;;;4.00;3.80;;;30.40;96.10;;;;;;4993578;28;20488;-67
2022/06/23 07:23:38;;;;;;;3.90;3.77;;;30.40;95.70;;;;;;4989031;28;20478;-68
2022/06/23 07:26:18;;;;;;;4.33;4.07;;;30.30;95.30;;;;;;4991415;28;20763;-67
2022/06/23 07:28:51;;;;;;;4.47;4.27;;;30.20;95.10;;;;;;4989691;28;20473;-67
2022/06/23 07:31:21;;;;;;;4.33;4.23;;;30.40;94.50;;;;;;4991914;28;20487;-67
2022/06/23 07:33:54;;;;;;;4.13;3.93;;;30.30;93.60;;;;;;4987012;28;20474;-67
2022/06/23 07:36:27;;;;;;;3.70;3.60;;;30.40;94.00;;;;;;4988860;28;20474;-68
2022/06/23 07:39:02;;;;;;;3.83;3.73;;;30.90;93.70;;;;;;4993008;28;20462;-69
2022/06/23 07:41:36;;;;;;;3.60;3.50;;;31.30;93.30;;;;;;4990532;28;20490;-70
2022/06/23 07:44:05;;;;;;;3.80;3.70;;;31.30;92.70;;;;;;4991630;28;20807;-68
2022/06/23 07:46:35;;;;;;;4.37;4.07;;;31.50;92.30;;;;;;4990386;28;20835;-66
2022/06/23 07:49:02;;;;;;;3.97;3.87;;;31.50;92.20;;;;;;4986759;28;20477;-67
2022/06/23 07:51:29;;;;;;;3.53;3.50;;;31.60;91.80;;;;;;4990022;28;20502;-68
2022/06/23 07:53:58;;;;;;;3.77;3.47;;;32.10;91.50;;;;;;4988867;28;20511;-67
2022/06/23 07:56:28;;;;;;;4.27;4.07;;;31.50;90.00;;;;;;4987274;28;20534;-67
2022/06/23 07:58:57;;;;;;;3.87;3.77;;;30.80;90.90;;;;;;4992346;28;21162;-67
2022/06/23 08:01:28;;;;;;;3.83;3.63;;;30.50;91.50;;;;;;4993250;28;20541;-66
2022/06/23 08:04:01;;;;;;;3.70;3.60;;;30.40;91.20;;;;;;4985498;28;20465;-67
2022/06/23 08:06:29;;;;;;;3.43;3.23;;;30.00;91.90;;;;;;4993001;28;20465;-69
2022/06/23 08:09:01;;;;;;;4.17;4.07;;;30.30;92.10;;;;;;4992415;28;20481;-69
2022/06/23 08:14:17;;;;;;;3.90;3.70;;;30.50;90.60;;;;;;4992606;28;20803;-67
2022/06/23 08:16:50;;;;;;;3.93;3.83;;;30.50;90.40;;;;;;4993927;28;20509;-68
2022/06/23 08:19:28;;;;;;;3.77;3.60;;;30.20;90.90;;;;;;4994077;28;20898;-67
2022/06/23 08:22:01;;;;;;;3.90;3.70;;;30.40;91.10;;;;;;4992047;28;20894;-67
2022/06/23 08:24:32;;;;;;;4.40;4.00;;;30.50;90.80;;;;;;4991364;28;20474;-69
2022/06/23 08:27:01;;;;;;;3.90;3.80;;;30.50;90.90;;;;;;4993022;28;20975;-66
2022/06/23 08:29:32;;;;;;;3.73;3.60;;;30.30;90.60;;;;;;4991624;28;20471;-68
2022/06/23 08:32:00;;;;;;;4.20;4.00;;;30.10;90.70;;;;;;4991827;28;20487;-66
2022/06/23 08:34:28;;;;;;;3.80;3.70;;;29.90;90.40;;;;;;4988571;28;20830;-67
2022/06/23 08:36:58;;;;;;;3.73;3.63;;;30.20;90.70;;;;;;4985220;28;20455;-66
2022/06/23 08:39:32;;;;;;;3.70;3.60;;;30.30;90.50;;;;;;4991434;28;20916;-66
2022/06/23 08:42:09;;;;;;;3.43;3.33;;;30.20;90.70;;;;;;4992434;28;20479;-67
2022/06/23 08:44:42;;;;;;;4.33;4.13;;;30.30;90.50;;;;;;4987035;28;20561;-67
2022/06/23 08:47:16;;;;;;;4.53;4.33;;;30.50;90.20;;;;;;4990393;28;20467;-67
2022/06/23 08:49:48;;;;;;;3.53;3.43;;;30.50;90.00;;;;;;4988437;28;20482;-66
2022/06/23 08:52:19;;;;;;;3.40;3.40;;;30.70;88.90;;;;;;4992320;28;20894;-66
2022/06/23 08:54:53;;;;;;;3.80;3.70;;;30.70;89.70;;;;;;4991169;28;20512;-66
2022/06/23 08:57:28;;;;;;;3.47;3.47;;;30.80;89.50;;;;;;4991831;28;20469;-66
2022/06/23 09:00:00;;;;;;;3.57;3.47;;;30.90;88.70;;;;;;4987703;28;20482;-66
2022/06/23 09:02:31;;;;;;;4.40;4.10;;;30.90;86.10;;;;;;4991631;28;20490;-66
2022/06/23 09:05:04;;;;;;;3.03;2.90;;;30.60;86.80;;;;;;4992131;28;20525;-65
2022/06/23 09:07:43;;;;;;;3.10;3.00;;;30.50;83.80;;;;;;4989798;28;20870;-68
2022/06/23 09:10:25;;;;;;;3.60;3.50;;;30.40;84.00;;;;;;4992057;28;20821;-66
2022/06/23 09:13:16;;;;;;;3.50;3.30;;;30.30;83.80;;;;;;4980470;28;20995;-67
2022/06/23 09:16:06;;;;;;;4.07;3.87;;;30.00;84.40;;;;;;4985481;28;21023;-66
2022/06/23 09:19:02;;;;;;;3.37;3.13;;;30.10;86.50;;;;;;4991422;28;20474;-65
2022/06/23 09:21:44;;;;;;;3.40;3.40;;;30.10;84.00;;;;;;4990573;28;20500;-67
2022/06/23 09:24:43;;;;;;;3.37;3.27;;;29.90;84.20;;;;;;4989874;28;20473;-67
2022/06/23 09:27:16;;;;;;;3.17;3.17;;;29.90;83.50;;;;;;4991642;28;20469;-66
2022/06/23 09:29:56;;;;;;;3.20;3.10;;;29.80;83.90;;;;;;4991782;28;20474;-67
2022/06/23 09:32:34;;;;;;;3.30;3.20;;;29.70;83.70;;;;;;4991670;28;20486;-66
2022/06/23 09:35:19;;;;;;;3.47;3.47;;;29.60;80.00;;;;;;4991105;28;20474;-66
2022/06/23 09:38:07;;;;;;;3.57;3.37;;;29.60;81.90;;;;;;4977252;28;20461;-67
2022/06/23 09:40:42;;;;;;;3.93;3.73;;;29.70;81.10;;;;;;4972513;28;20484;-66
2022/06/23 09:43:37;;;;;;;3.40;3.40;;;29.40;83.80;;;;;;4972492;28;20471;-68
2022/06/23 09:46:43;;;;;;;3.40;3.37;;;29.10;82.40;;;;;;4973134;28;20977;-67
2022/06/23 09:49:27;;;;;;;3.03;3.03;;;29.10;84.30;;;;;;4942813;28;20473;-66
2022/06/23 09:52:32;;;;;;;2.90;2.90;;;29.10;82.50;;;;;;4972386;28;20493;-66
2022/06/23 09:55:25;;;;;;;4.97;3.00;;;29.10;81.70;;;;;;4972550;28;20461;-66
2022/06/23 09:58:33;;;;;;;3.27;3.00;;;29.00;81.30;;;;;;4973270;28;20461;-67
2022/06/23 10:01:16;;;;;;;3.23;3.20;;;29.10;80.30;;;;;;4978136;28;20483;-67
2022/06/23 10:04:03;;;;;;;2.80;2.80;;;29.10;78.70;;;;;;4991194;28;20458;-66
2022/06/23 10:07:05;;;;;;;3.17;2.97;;;29.00;79.20;;;;;;4991548;28;20477;-66
2022/06/23 10:09:48;;;;;;;2.77;2.73;;;28.90;79.10;;;;;;4950911;28;20484;-70
2022/06/23 10:12:53;;;;;;;2.73;2.60;;;28.80;76.80;;;;;;4991419;28;20490;-66
2022/06/23 10:15:36;;;;;;;3.03;2.93;;;28.70;77.00;;;;;;5014472;23;20474;-67
2022/06/23 10:18:29;;;;;;;4.80;2.70;;;28.50;77.30;;;;;;4932814;29;20480;-67
2022/06/23 10:21:06;;;;;;;2.90;2.80;;;28.40;77.10;;;;;;4933152;29;20995;-66
2022/06/23 10:23:58;;;;;;;2.77;2.77;;;28.40;75.60;;;;;;4933241;29;20468;-67
2022/06/23 10:26:45;;;;;;;3.40;3.10;;;28.40;76.10;;;;;;4943249;29;20486;-67
2022/06/23 10:29:24;;;;;;;3.07;2.90;;;28.60;75.60;;;;;;4952366;28;20467;-67
2022/06/23 10:32:13;;;;;;;2.80;2.70;;;28.40;73.70;;;;;;4951992;28;20988;-67
2022/06/23 10:34:57;;;;;;;2.50;2.50;;;28.50;71.90;;;;;;4952672;28;20464;-67
2022/06/23 10:37:48;;;;;;;2.70;2.60;;;28.50;76.10;;;;;;4952199;28;20491;-66
2022/06/23 10:40:52;;;;;;;3.73;3.53;;;28.60;71.60;;;;;;4953697;28;20827;-66
2022/06/23 10:43:52;;;;;;;3.23;2.87;;;28.60;71.60;;;;;;4955007;28;20459;-66
2022/06/23 10:46:24;;;;;;;2.50;2.50;;;28.60;73.70;;;;;;4942119;28;20529;-67
2022/06/23 10:49:14;;;;;;;2.47;2.47;;;28.60;71.10;;;;;;4952803;29;20470;-67
2022/06/23 10:52:06;;;;;;;3.47;3.17;;;28.60;70.30;;;;;;4952186;29;20490;-67
2022/06/23 10:54:46;;;;;;;2.63;2.50;;;28.60;69.60;;;;;;4952493;29;20839;-67
2022/06/23 10:57:50;;;;;;;2.20;2.20;;;28.60;70.30;;;;;;4951776;29;20950;-67
2022/06/23 11:00:20;;;;;;;2.77;2.67;;;28.70;67.10;;;;;;4952137;28;20489;-67
2022/06/23 11:03:35;;;;;;;3.13;2.93;;;28.80;66.90;;;;;;4951769;29;20459;-67
2022/06/23 11:06:15;;;;;;;1.97;1.97;;;29.00;67.60;;;;;;4892949;29;20530;-67
2022/06/23 11:09:17;;;;;;;2.60;2.60;;;29.10;68.90;;;;;;4942657;28;20476;-67
2022/06/23 11:11:59;;;;;;;2.30;2.30;;;29.10;65.90;;;;;;4935077;28;20486;-67
2022/06/23 11:14:38;;;;;;;2.77;2.77;;;29.10;67.20;;;;;;4952122;29;20462;-67
2022/06/23 11:17:13;;;;;;;2.60;2.60;;;29.20;66.20;;;;;;4951021;29;20498;-67
2022/06/23 11:19:50;;;;;;;2.63;2.63;;;29.30;65.10;;;;;;4952032;29;20471;-66
2022/06/23 11:22:35;;;;;;;2.63;2.63;;;29.20;65.80;;;;;;4953031;29;20466;-67
2022/06/23 11:25:12;;;;;;;3.77;3.33;;;29.20;66.10;;;;;;4951808;29;20465;-67
2022/06/23 11:27:48;;;;;;;2.87;2.87;;;29.10;64.80;;;;;;4951220;29;20598;-67
2022/06/23 11:30:22;;;;;;;2.70;2.70;;;29.00;62.90;;;;;;4951833;29;20473;-66
2022/06/23 11:33:21;;;;;;;2.73;2.63;;;29.00;63.50;;;;;;4951465;29;20501;-67
2022/06/23 11:36:14;;;;;;;3.00;2.80;;;29.10;63.70;;;;;;4951581;29;20491;-67
2022/06/23 11:38:59;;;;;;;2.80;2.80;;;29.00;63.20;;;;;;4951778;29;20471;-67
2022/06/23 11:41:43;;;;;;;2.83;2.80;;;28.80;64.50;;;;;;4951482;29;20470;-66
2022/06/23 11:44:23;;;;;;;2.37;2.37;;;28.90;65.30;;;;;;4951240;29;20467;-66
2022/06/23 11:46:57;;;;;;;2.30;2.30;;;29.10;65.70;;;;;;4952606;28;20506;-66
2022/06/23 11:49:39;;;;;;;2.07;2.07;;;29.20;59.50;;;;;;4955452;29;20474;-67
2022/06/23 11:52:17;;;;;;;2.50;2.50;;;29.30;61.10;;;;;;4955587;28;20499;-67
2022/06/23 11:55:01;;;;;;;2.97;2.73;;;29.40;62.90;;;;;;4954895;29;20482;-67
2022/06/23 11:57:59;;;;;;;2.23;2.23;;;29.40;62.00;;;;;;4954696;29;20488;-67
2022/06/23 12:00:38;;;;;;;2.60;2.60;;;29.40;64.60;;;;;;4952588;28;20479;-67
2022/06/23 12:03:17;;;;;;;2.77;2.77;;;29.60;65.60;;;;;;4959269;28;20559;-67
2022/06/23 12:05:51;;;;;;;2.93;2.93;;;29.70;66.70;;;;;;4955174;29;20827;-67
2022/06/23 12:08:32;;;;;;;2.63;2.63;;;29.80;67.20;;;;;;4954713;29;20472;-67
2022/06/23 12:11:01;;;;;;;2.67;2.57;;;29.90;66.20;;;;;;4955046;29;20502;-66
2022/06/23 12:13:33;;;;;;;2.80;2.40;;;29.90;64.50;;;;;;4954550;29;20761;-66
2022/06/23 12:16:01;;;;;;;2.97;2.87;;;29.90;65.30;;;;;;4954672;29;20493;-66
2022/06/23 12:18:33;;;;;;;2.63;2.53;;;29.90;62.60;;;;;;4954279;29;20859;-67
2022/06/23 12:21:07;;;;;;;2.60;2.60;;;30.00;62.20;;;;;;4954642;29;20491;-67
2022/06/23 12:23:39;;;;;;;2.37;2.27;;;29.90;64.00;;;;;;4954197;29;20465;-67
2022/06/23 12:26:15;;;;;;;2.83;2.73;;;30.00;64.40;;;;;;4954903;29;20498;-66
2022/06/23 12:28:52;;;;;;;3.00;3.00;;;29.90;63.50;;;;;;4953960;29;20472;-66
2022/06/23 12:31:29;;;;;;;2.93;2.70;;;30.00;64.80;;;;;;4954294;29;20488;-66
2022/06/23 12:34:08;;;;;;;2.77;2.70;;;29.90;64.00;;;;;;4953942;28;20491;-66
2022/06/23 12:36:42;;;;;;;2.90;2.80;;;29.80;65.00;;;;;;4954245;29;20495;-67
2022/06/23 12:39:14;;;;;;;3.33;3.13;;;29.90;65.60;;;;;;4949659;29;20784;-66
2022/06/23 12:41:47;;;;;;;2.90;2.70;;;29.90;64.40;;;;;;4953729;28;20460;-67
2022/06/23 12:44:24;;;;;;;3.10;3.00;;;30.00;64.50;;;;;;4954096;29;20788;-67
2022/06/23 12:47:00;;;;;;;2.77;2.77;;;30.00;65.40;;;;;;4953868;29;20491;-66
2022/06/23 12:49:53;;;;;;;2.90;2.70;;;29.70;65.80;;;;;;4954326;29;20975;-65
2022/06/23 12:52:39;;;;;;;3.00;2.93;;;29.80;66.60;;;;;;4954154;29;20498;-66
2022/06/23 12:55:30;;;;;;;3.17;2.97;;;30.00;65.10;;;;;;4953763;29;20474;-67
2022/06/23 12:58:18;;;;;;;2.90;2.80;;;30.20;63.70;;;;;;4953241;28;20467;-66
2022/06/23 13:00:53;;;;;;;3.20;3.00;;;30.20;63.80;;;;;;4953785;29;20471;-66
2022/06/23 13:03:29;;;;;;;3.40;3.30;;;30.10;64.20;;;;;;4953441;28;20471;-66
2022/06/23 13:06:02;;;;;;;3.50;3.30;;;30.20;64.80;;;;;;4953850;29;20525;-66
2022/06/23 13:08:38;;;;;;;2.80;2.70;;;30.20;63.80;;;;;;4954044;29;20503;-66
2022/06/23 13:11:12;;;;;;;2.60;2.60;;;30.20;64.80;;;;;;4948327;29;20501;-67
2022/06/23 13:13:48;;;;;;;3.30;3.30;;;30.20;63.90;;;;;;4952912;28;20459;-67
2022/06/23 13:16:18;;;;;;;2.93;2.83;;;30.20;63.50;;;;;;4953815;28;20609;-67
2022/06/23 13:18:50;;;;;;;2.87;2.73;;;30.10;62.50;;;;;;4953576;29;20470;-66
2022/06/23 13:21:22;;;;;;;2.70;2.70;;;30.20;62.90;;;;;;4954007;29;20817;-66
2022/06/23 13:23:52;;;;;;;2.63;2.63;;;30.10;61.80;;;;;;4953605;29;20474;-66
2022/06/23 13:26:23;;;;;;;3.57;3.37;;;30.20;63.50;;;;;;4953457;29;20487;-67
2022/06/23 13:28:59;;;;;;;3.10;3.00;;;30.20;62.70;;;;;;4952832;29;20966;-66
2022/06/23 13:31:34;;;;;;;2.43;2.43;;;30.10;62.40;;;;;;4953288;29;20548;-66
2022/06/23 13:34:05;;;;;;;2.57;2.57;;;30.20;61.60;;;;;;4952776;29;20463;-66
2022/06/23 13:36:40;;;;;;;2.63;2.63;;;30.20;61.90;;;;;;4953377;29;20492;-66
2022/06/23 13:39:18;;;;;;;3.10;3.00;;;30.30;62.00;;;;;;4953528;29;20527;-66
2022/06/23 13:41:52;;;;;;;3.27;3.17;;;30.40;62.70;;;;;;4953334;28;20464;-66
2022/06/23 13:44:28;;;;;;;2.67;2.67;;;30.60;62.40;;;;;;4953379;29;20540;-65
2022/06/23 13:46:59;;;;;;;2.60;2.60;;;30.50;61.30;;;;;;4952849;29;20829;-66
2022/06/23 13:49:30;;;;;;;2.77;2.60;;;30.50;61.60;;;;;;4953169;29;20475;-66
2022/06/23 13:52:02;;;;;;;2.90;2.90;;;30.60;62.60;;;;;;4953134;29;20826;-66
2022/06/23 13:54:35;;;;;;;2.60;2.60;;;30.60;62.20;;;;;;4953142;29;20465;-66
2022/06/23 13:57:11;;;;;;;3.07;2.97;;;30.70;62.10;;;;;;4952482;29;20487;-66
2022/06/23 13:59:49;;;;;;;2.90;2.80;;;30.80;62.20;;;;;;4952701;29;20833;-66
2022/06/23 14:02:23;;;;;;;3.00;3.00;;;30.80;61.70;;;;;;4964635;28;20455;-66
2022/06/23 14:04:53;;;;;;;2.63;2.63;;;30.70;61.30;;;;;;4972354;28;21035;-67
2022/06/23 14:07:28;;;;;;;2.80;2.77;;;30.80;61.30;;;;;;4972010;28;20493;-67
2022/06/23 14:10:00;;;;;;;2.63;2.63;;;30.80;61.50;;;;;;4971563;28;20835;-67
2022/06/23 14:12:33;;;;;;;2.60;2.60;;;30.80;60.00;;;;;;4971570;28;20496;-67
2022/06/23 14:15:09;;;;;;;2.90;2.90;;;30.40;59.40;;;;;;4972337;28;20477;-67
2022/06/23 14:17:41;;;;;;;2.90;2.80;;;30.50;60.10;;;;;;4971367;28;21004;-67
2022/06/23 14:20:15;;;;;;;2.97;2.87;;;30.60;59.90;;;;;;4971780;28;20470;-67
2022/06/23 14:22:45;;;;;;;2.70;2.70;;;30.60;60.00;;;;;;4972109;28;20507;-67
2022/06/23 14:25:21;;;;;;;2.80;2.70;;;30.60;59.70;;;;;;4972126;28;20489;-67
2022/06/23 14:27:53;;;;;;;3.07;2.87;;;30.60;59.90;;;;;;4971528;28;20923;-67
2022/06/23 14:30:30;;;;;;;2.23;2.17;;;30.70;59.40;;;;;;4971825;28;20476;-67
2022/06/23 14:33:03;;;;;;;2.60;2.50;;;30.80;59.40;;;;;;4971243;28;20496;-67
2022/06/23 14:35:37;;;;;;;2.93;2.80;;;30.90;58.80;;;;;;4972008;28;20698;-67
2022/06/23 14:38:13;;;;;;;2.90;2.80;;;31.00;58.40;;;;;;4971530;28;20466;-67
2022/06/23 14:40:56;;;;;;;2.30;2.30;;;31.20;58.40;;;;;;4947997;28;20963;-67
2022/06/23 14:43:52;;;;;;;2.40;2.40;;;31.30;58.30;;;;;;4951663;28;20459;-67
2022/06/23 14:46:29;;;;;;;3.33;2.50;;;31.20;58.70;;;;;;4952403;28;20709;-67
2022/06/23 14:49:16;;;;;;;2.07;2.07;;;31.40;57.80;;;;;;4951964;28;20493;-67
2022/06/23 14:51:47;;;;;;;2.43;2.33;;;31.40;57.20;;;;;;4951877;29;20495;-66
2022/06/23 14:54:20;;;;;;;2.50;2.40;;;31.40;57.40;;;;;;4952340;29;20493;-67
2022/06/23 14:56:53;;;;;;;2.30;2.30;;;31.50;57.50;;;;;;4952501;29;20488;-66
2022/06/23 14:59:27;;;;;;;2.83;2.67;;;31.40;57.00;;;;;;4952271;29;20481;-66
2022/06/23 15:02:13;;;;;;;2.77;2.57;;;31.40;57.50;;;;;;4951738;29;20462;-66
2022/06/23 15:04:47;;;;;;;2.80;2.67;;;31.50;57.60;;;;;;4952775;29;20470;-66
2022/06/23 15:07:20;;;;;;;2.60;2.50;;;31.60;56.10;;;;;;4952257;29;20485;-66
2022/06/23 15:09:53;;;;;;;2.47;2.40;;;31.70;57.50;;;;;;4952155;29;20468;-66
2022/06/23 15:12:30;;;;;;;2.80;2.70;;;31.70;56.70;;;;;;4944522;28;20851;-66
2022/06/23 15:15:07;;;;;;;2.63;2.57;;;31.60;57.60;;;;;;4952757;29;20462;-66
2022/06/23 15:17:42;;;;;;;2.70;2.60;;;31.60;57.80;;;;;;4951597;29;20498;-66
2022/06/23 15:20:25;;;;;;;4.90;2.90;;;31.60;57.80;;;;;;4951935;29;20469;-66
2022/06/23 15:23:12;;;;;;;2.53;2.53;;;31.60;57.50;;;;;;4954198;28;20556;-66
2022/06/23 15:25:50;;;;;;;2.57;2.57;;;31.60;57.70;;;;;;4955458;29;20498;-67
2022/06/23 15:28:25;;;;;;;2.80;2.80;;;31.60;58.20;;;;;;4955211;29;20490;-67
2022/06/23 15:31:00;;;;;;;3.37;3.13;;;31.60;57.40;;;;;;4955517;29;20477;-67
2022/06/23 15:33:41;;;;;;;2.40;2.30;;;31.80;57.20;;;;;;4954837;28;20576;-67
2022/06/23 15:36:23;;;;;;;2.67;2.63;;;31.80;56.80;;;;;;4955431;28;20491;-66
2022/06/23 15:38:56;;;;;;;2.83;2.73;;;31.80;56.90;;;;;;4955142;29;21039;-67
2022/06/23 15:41:38;;;;;;;2.60;2.50;;;31.80;56.50;;;;;;4955349;29;20469;-66
2022/06/23 15:44:16;;;;;;;2.57;2.47;;;31.80;55.80;;;;;;4954875;29;20477;-66
2022/06/23 15:46:52;;;;;;;2.97;2.97;;;31.70;55.70;;;;;;4955325;29;20861;-67
2022/06/23 15:49:32;;;;;;;2.57;2.57;;;31.70;55.10;;;;;;4955357;29;20972;-67
2022/06/23 15:52:03;;;;;;;2.50;2.50;;;31.80;56.00;;;;;;4954960;29;20490;-66
2022/06/23 15:54:37;;;;;;;2.63;2.50;;;31.80;55.20;;;;;;4955322;29;20467;-66
2022/06/23 15:57:11;;;;;;;2.60;2.53;;;31.70;54.40;;;;;;4954704;29;20846;-67
2022/06/23 15:59:44;;;;;;;2.73;2.73;;;31.70;54.60;;;;;;4954874;29;20467;-67
2022/06/23 16:02:25;;;;;;;2.83;2.67;;;31.60;54.70;;;;;;4965035;28;20467;-67
2022/06/23 16:04:59;;;;;;;2.60;2.50;;;31.50;54.60;;;;;;4974476;28;20550;-67
2022/06/23 16:07:31;;;;;;;2.77;2.67;;;31.60;54.80;;;;;;4973973;28;20487;-67
2022/06/23 16:10:00;;;;;;;2.60;2.50;;;31.60;54.70;;;;;;4974135;28;20962;-67
2022/06/23 16:12:33;;;;;;;2.77;2.67;;;31.70;55.40;;;;;;4973458;28;20497;-67
2022/06/23 16:15:03;;;;;;;3.67;3.57;;;31.80;55.10;;;;;;4973952;28;20471;-67
2022/06/23 16:17:40;;;;;;;2.70;2.60;;;31.70;55.10;;;;;;4973978;28;20497;-67
2022/06/23 16:20:13;;;;;;;2.40;2.40;;;31.70;54.80;;;;;;4973935;28;20962;-67
2022/06/23 16:22:49;;;;;;;2.90;2.90;;;31.60;54.40;;;;;;4973922;28;20470;-68
2022/06/23 16:25:25;;;;;;;2.43;2.43;;;31.50;54.50;;;;;;4973565;28;20482;-67
2022/06/23 16:27:59;;;;;;;2.77;2.73;;;31.50;55.30;;;;;;4973721;28;20474;-67
2022/06/23 16:30:35;;;;;;;3.20;3.00;;;31.50;54.90;;;;;;4973825;28;20470;-67
2022/06/23 16:33:12;;;;;;;3.33;3.33;;;31.40;54.30;;;;;;4972502;28;20862;-67
2022/06/23 16:35:45;;;;;;;2.80;2.80;;;31.40;54.60;;;;;;4973845;28;20518;-67
2022/06/23 16:38:16;;;;;;;2.90;2.80;;;31.40;54.80;;;;;;4973473;28;20477;-67
2022/06/23 16:40:50;;;;;;;2.43;2.43;;;31.40;54.80;;;;;;4949837;28;20614;-66
2022/06/23 16:43:22;;;;;;;2.63;2.47;;;31.30;54.80;;;;;;4953832;29;20461;-67
2022/06/23 16:45:55;;;;;;;2.83;2.63;;;31.30;54.50;;;;;;4954438;29;20569;-67
2022/06/23 16:48:28;;;;;;;2.50;2.50;;;31.30;54.00;;;;;;4953372;29;20465;-67
2022/06/23 16:51:00;;;;;;;2.90;2.70;;;31.20;53.80;;;;;;4954303;29;20550;-67
2022/06/23 16:53:35;;;;;;;2.60;2.50;;;31.10;54.00;;;;;;4955435;29;20530;-66
2022/06/23 16:56:09;;;;;;;3.10;3.00;;;31.30;54.90;;;;;;4954341;29;20491;-66
2022/06/23 16:58:56;;;;;;;2.27;2.17;;;31.30;54.80;;;;;;4953492;29;20571;-66
2022/06/23 17:01:29;;;;;;;2.70;2.50;;;31.10;53.90;;;;;;4954024;29;20475;-66
2022/06/23 17:04:02;;;;;;;2.20;2.20;;;31.10;54.40;;;;;;4953587;29;20824;-66
2022/06/23 17:06:44;;;;;;;2.83;2.80;;;31.00;53.80;;;;;;4954043;29;20496;-67
2022/06/23 17:09:18;;;;;;;2.83;2.73;;;30.90;53.40;;;;;;4953651;29;20476;-66
2022/06/23 17:11:53;;;;;;;2.80;2.70;;;30.80;53.80;;;;;;4946747;29;20815;-67
2022/06/23 17:14:26;;;;;;;2.23;2.23;;;30.90;54.00;;;;;;4953764;29;20455;-67
2022/06/23 17:16:59;;;;;;;3.00;3.00;;;30.90;53.90;;;;;;4952983;29;20506;-66
2022/06/23 17:19:29;;;;;;;2.73;2.63;;;30.90;54.10;;;;;;4954940;29;20909;-66
2022/06/23 17:22:01;;;;;;;2.67;2.57;;;30.90;53.80;;;;;;4957395;29;20483;-69
2022/06/23 17:24:31;;;;;;;2.30;2.20;;;30.90;54.50;;;;;;4956990;29;20463;-67
2022/06/23 17:27:18;;;;;;;3.00;2.80;;;30.90;54.40;;;;;;4954244;29;20539;-67
2022/06/23 17:29:55;;;;;;;2.50;2.50;;;30.90;54.40;;;;;;4953430;29;20463;-66
2022/06/23 17:32:32;;;;;;;2.70;2.70;;;30.90;54.40;;;;;;4953052;29;20499;-66
2022/06/23 17:35:14;;;;;;;2.60;2.50;;;30.90;54.20;;;;;;4953695;29;20471;-67
2022/06/23 17:37:50;;;;;;;2.43;2.43;;;30.80;54.50;;;;;;4953298;29;20814;-67